createdAt,value
2018-05-26T00:02:06.850Z,5.60
2018-05-26T00:04:32.889Z,5.40
2018-05-26T00:06:58.910Z,5.97
2018-05-26T00:09:24.920Z,5.67
2018-05-26T00:11:50.922Z,5.37
2018-05-26T00:14:16.930Z,5.57
2018-05-26T00:16:42.941Z,6.07
2018-05-26T00:19:08.944Z,5.47
2018-05-26T00:21:34.938Z,5.60
2018-05-26T00:24:00.958Z,4.80
2018-05-26T00:26:26.969Z,5.53
2018-05-26T00:28:52.991Z,5.07
2018-05-26T00:31:19.001Z,5.67
2018-05-26T00:33:45.014Z,5.40
2018-05-26T00:36:11.006Z,5.73
2018-05-26T00:38:37.024Z,5.10
2018-05-26T00:41:03.119Z,5.33
2018-05-26T00:43:29.130Z,6.17
2018-05-26T00:45:55.145Z,5.73
2018-05-26T00:48:21.187Z,5.13
2018-05-26T00:50:47.187Z,5.40
2018-05-26T00:53:13.246Z,5.70
2018-05-26T00:55:39.259Z,5.57
2018-05-26T00:58:05.284Z,5.50
2018-05-26T01:00:31.304Z,5.47
2018-05-26T01:02:57.330Z,5.30
2018-05-26T01:05:23.343Z,4.53
2018-05-26T01:07:49.372Z,5.23
2018-05-26T01:10:15.370Z,5.60
2018-05-26T01:12:41.387Z,5.97
2018-05-26T01:15:07.388Z,4.23
2018-05-26T01:17:33.433Z,4.90
2018-05-26T01:19:59.434Z,5.30
2018-05-26T01:22:25.441Z,5.40
2018-05-26T01:24:51.470Z,5.23
2018-05-26T01:27:17.483Z,5.00
2018-05-26T01:29:43.479Z,4.83
2018-05-26T01:32:09.491Z,5.53
2018-05-26T01:34:35.517Z,5.30
2018-05-26T01:37:01.539Z,5.67
2018-05-26T01:39:27.599Z,5.50
2018-05-26T01:41:53.594Z,5.10
2018-05-26T01:44:19.626Z,5.40
2018-05-26T01:46:45.630Z,5.43
2018-05-26T01:49:11.654Z,5.47
2018-05-26T01:51:37.667Z,5.33
2018-05-26T01:54:03.683Z,4.77
2018-05-26T01:56:29.691Z,5.60
2018-05-26T01:58:55.707Z,5.30
2018-05-26T02:01:21.711Z,4.93
2018-05-26T02:03:47.729Z,5.47
2018-05-26T02:06:13.721Z,5.33
2018-05-26T02:08:39.743Z,5.33
2018-05-26T02:11:05.751Z,5.07
2018-05-26T02:13:31.769Z,4.97
2018-05-26T02:15:57.775Z,5.10
2018-05-26T02:18:23.790Z,5.00
2018-05-26T02:20:49.796Z,6.40
2018-05-26T02:23:15.819Z,5.87
2018-05-26T02:25:41.836Z,5.63
2018-05-26T02:28:07.837Z,5.00
2018-05-26T02:30:33.859Z,5.90
2018-05-26T02:32:59.866Z,4.60
2018-05-26T02:35:25.891Z,5.20
2018-05-26T02:37:51.924Z,5.43
2018-05-26T02:40:17.926Z,5.67
2018-05-26T02:42:43.938Z,5.07
2018-05-26T02:45:09.944Z,4.90
2018-05-26T02:47:35.966Z,5.20
2018-05-26T02:50:01.969Z,4.93
2018-05-26T02:52:27.966Z,5.70
2018-05-26T02:54:53.984Z,5.17
2018-05-26T02:57:19.987Z,5.43
2018-05-26T02:59:45.999Z,5.53
2018-05-26T03:02:12.037Z,5.53
2018-05-26T03:04:38.058Z,5.20
2018-05-26T03:07:04.056Z,5.37
2018-05-26T03:09:30.075Z,5.63
2018-05-26T03:11:56.082Z,5.33
2018-05-26T03:14:22.103Z,6.20
2018-05-26T03:16:48.110Z,4.57
2018-05-26T03:19:14.122Z,5.30
2018-05-26T03:21:40.128Z,4.87
2018-05-26T03:24:06.162Z,5.20
2018-05-26T03:26:32.173Z,5.47
2018-05-26T03:28:58.201Z,5.00
2018-05-26T03:31:24.207Z,5.40
2018-05-26T03:33:50.241Z,5.07
2018-05-26T03:36:16.307Z,5.10
2018-05-26T03:38:42.298Z,4.87
2018-05-26T03:41:08.339Z,5.10
2018-05-26T03:43:34.374Z,5.30
2018-05-26T03:46:00.375Z,6.27
2018-05-26T03:48:26.386Z,4.83
2018-05-26T03:50:52.412Z,5.10
2018-05-26T03:53:18.444Z,5.40
2018-05-26T03:55:44.466Z,5.10
2018-05-26T03:58:10.480Z,4.77
2018-05-26T04:00:36.482Z,5.60
2018-05-26T04:03:02.483Z,5.40
2018-05-26T04:05:28.500Z,5.10
2018-05-26T04:07:54.507Z,5.40
2018-05-26T04:10:20.536Z,5.90
2018-05-26T04:12:46.535Z,4.97
2018-05-26T04:15:12.572Z,5.00
2018-05-26T04:17:38.579Z,5.10
2018-05-26T04:20:04.593Z,5.37
2018-05-26T04:22:30.594Z,5.50
2018-05-26T04:24:56.605Z,5.23
2018-05-26T04:27:22.625Z,4.83
2018-05-26T04:29:48.670Z,5.53
2018-05-26T04:32:14.686Z,5.40
2018-05-26T04:34:40.710Z,5.10
2018-05-26T04:37:06.709Z,5.20
2018-05-26T04:39:32.722Z,4.57
2018-05-26T04:41:58.728Z,4.60
2018-05-26T04:44:24.748Z,4.83
2018-05-26T04:46:50.743Z,5.27
2018-05-26T04:49:16.805Z,5.40
2018-05-26T04:51:42.911Z,4.80
2018-05-26T04:54:08.928Z,4.53
2018-05-26T04:56:35.394Z,5.30
2018-05-26T04:59:01.487Z,5.00
2018-05-26T05:01:27.500Z,4.70
2018-05-26T05:03:53.519Z,4.20
2018-05-26T05:06:19.543Z,4.90
2018-05-26T05:08:45.567Z,4.93
2018-05-26T05:11:11.719Z,4.40
2018-05-26T05:13:37.742Z,5.27
2018-05-26T05:16:03.746Z,5.30
2018-05-26T05:18:29.776Z,4.53
2018-05-26T05:20:55.799Z,4.80
2018-05-26T05:23:21.802Z,5.03
2018-05-26T05:25:47.841Z,4.57
2018-05-26T05:28:13.850Z,5.33
2018-05-26T05:30:39.929Z,8.00
2018-05-26T05:33:05.934Z,6.97
2018-05-26T05:35:31.938Z,8.80
2018-05-26T05:37:57.947Z,9.00
2018-05-26T05:40:23.966Z,9.47
2018-05-26T05:42:49.995Z,10.47
2018-05-26T05:45:16.108Z,11.57
2018-05-26T05:47:42.182Z,12.50
2018-05-26T05:50:08.219Z,11.13
2018-05-26T05:52:34.231Z,11.50
2018-05-26T05:55:00.250Z,11.20
2018-05-26T05:57:26.272Z,10.90
2018-05-26T05:59:52.295Z,10.87
2018-05-26T06:02:18.327Z,10.67
2018-05-26T06:04:44.393Z,9.50
2018-05-26T06:07:10.392Z,9.60
2018-05-26T06:09:36.435Z,9.67
2018-05-26T06:12:02.471Z,9.60
2018-05-26T06:14:28.492Z,10.03
2018-05-26T06:16:54.515Z,9.10
2018-05-26T06:19:20.541Z,8.43
2018-05-26T06:21:46.547Z,9.07
2018-05-26T06:24:12.570Z,9.07
2018-05-26T06:26:38.666Z,9.10
2018-05-26T06:29:04.678Z,8.53
2018-05-26T06:31:30.691Z,8.77
2018-05-26T06:33:56.704Z,8.17
2018-05-26T06:36:22.743Z,9.10
2018-05-26T06:38:48.760Z,8.80
2018-05-26T06:41:14.771Z,8.00
2018-05-26T06:43:40.778Z,8.00
2018-05-26T06:46:06.798Z,7.63
2018-05-26T06:48:32.802Z,7.77
2018-05-26T06:50:58.818Z,8.30
2018-05-26T06:53:24.829Z,8.13
2018-05-26T06:55:50.956Z,7.70
2018-05-26T06:58:17.156Z,7.70
2018-05-26T07:00:43.166Z,7.83
2018-05-26T07:03:09.169Z,8.30
2018-05-26T07:05:35.191Z,7.90
2018-05-26T07:08:01.200Z,6.53
2018-05-26T07:10:27.210Z,7.30
2018-05-26T07:12:53.222Z,7.43
2018-05-26T07:15:19.250Z,7.80
2018-05-26T07:17:45.261Z,7.30
2018-05-26T07:20:11.271Z,7.23
2018-05-26T07:22:37.281Z,7.93
2018-05-26T07:25:03.286Z,10.20
2018-05-26T07:27:29.298Z,9.97
2018-05-26T07:29:55.322Z,11.30
2018-05-26T07:32:21.334Z,13.03
2018-05-26T07:34:47.383Z,11.70
2018-05-26T07:37:13.404Z,13.27
2018-05-26T07:39:39.426Z,12.43
2018-05-26T07:42:05.441Z,13.93
2018-05-26T07:44:31.462Z,14.10
2018-05-26T07:46:57.537Z,12.90
2018-05-26T07:49:23.877Z,13.23
2018-05-26T07:51:49.935Z,13.20
2018-05-26T07:54:15.984Z,11.90
2018-05-26T07:56:41.998Z,11.40
2018-05-26T07:59:08.010Z,12.03
2018-05-26T08:01:34.036Z,10.80
2018-05-26T08:04:00.108Z,11.17
2018-05-26T08:06:26.137Z,9.97
2018-05-26T08:08:52.139Z,9.57
2018-05-26T08:11:18.161Z,9.20
2018-05-26T08:13:44.522Z,10.70
2018-05-26T08:16:10.544Z,9.77
2018-05-26T08:18:36.545Z,10.13
2018-05-26T08:21:02.647Z,8.80
2018-05-26T08:23:28.804Z,9.97
2018-05-26T08:25:54.852Z,9.83
2018-05-26T08:28:20.854Z,9.57
2018-05-26T08:30:46.858Z,9.47
2018-05-26T08:33:12.853Z,8.83
2018-05-26T08:35:38.883Z,9.13
2018-05-26T08:38:04.886Z,8.63
2018-05-26T08:40:30.963Z,8.60
2018-05-26T08:42:56.968Z,8.97
2018-05-26T08:45:23.003Z,9.40
2018-05-26T08:47:49.014Z,8.37
2018-05-26T08:50:15.019Z,7.90
2018-05-26T08:52:41.023Z,8.27
2018-05-26T08:55:07.069Z,7.37
2018-05-26T08:57:33.080Z,8.30
2018-05-26T08:59:59.114Z,7.67
2018-05-26T09:02:25.171Z,7.80
2018-05-26T09:04:51.227Z,8.07
2018-05-26T09:07:17.247Z,7.10
2018-05-26T09:09:43.268Z,7.10
2018-05-26T09:12:09.289Z,7.77
2018-05-26T09:14:35.402Z,7.10
2018-05-26T09:17:01.411Z,7.50
2018-05-26T09:19:27.423Z,7.50
2018-05-26T09:21:54.832Z,7.50
2018-05-26T09:24:20.843Z,7.10
2018-05-26T09:26:46.903Z,7.00
2018-05-26T09:29:12.937Z,6.73
2018-05-26T09:31:38.955Z,7.20
2018-05-26T09:34:04.958Z,7.03
2018-05-26T09:36:30.975Z,7.47
2018-05-26T09:38:56.983Z,7.17
2018-05-26T09:41:23.007Z,7.67
2018-05-26T09:43:49.014Z,7.80
2018-05-26T09:46:15.049Z,7.53
2018-05-26T09:48:41.051Z,8.53
2018-05-26T09:51:07.059Z,8.60
2018-05-26T09:53:33.081Z,7.70
2018-05-26T09:55:59.120Z,9.47
2018-05-26T09:58:25.123Z,8.87
2018-05-26T10:00:51.151Z,8.27
2018-05-26T10:03:17.169Z,8.57
2018-05-26T10:05:43.192Z,8.40
2018-05-26T10:08:09.286Z,7.83
2018-05-26T10:10:35.307Z,8.20
2018-05-26T10:13:01.326Z,7.70
2018-05-26T10:15:27.362Z,9.90
2018-05-26T10:17:53.360Z,9.67
2018-05-26T10:20:19.392Z,9.27
2018-05-26T10:22:45.434Z,9.20
2018-05-26T10:25:11.458Z,9.60
2018-05-26T10:27:37.465Z,9.77
2018-05-26T10:30:03.525Z,9.87
2018-05-26T10:32:29.531Z,9.93
2018-05-26T10:34:55.624Z,8.87
2018-05-26T10:37:21.780Z,9.10
2018-05-26T10:39:47.834Z,8.60
2018-05-26T10:42:13.864Z,8.20
2018-05-26T10:44:39.880Z,8.57
2018-05-26T10:47:05.908Z,8.27
2018-05-26T10:49:31.918Z,7.77
2018-05-26T10:51:57.944Z,8.10
2018-05-26T10:54:23.950Z,8.00
2018-05-26T10:56:49.974Z,7.57
2018-05-26T10:59:15.978Z,7.67
2018-05-26T11:01:41.992Z,7.40
2018-05-26T11:04:08.446Z,7.93
2018-05-26T11:06:34.462Z,7.57
2018-05-26T11:09:00.482Z,7.83
2018-05-26T11:11:26.514Z,7.03
2018-05-26T11:13:52.566Z,6.40
2018-05-26T11:16:18.656Z,6.50
2018-05-26T11:18:44.602Z,6.97
2018-05-26T11:21:10.784Z,6.60
2018-05-26T11:23:36.854Z,6.90
2018-05-26T11:26:02.930Z,6.63
2018-05-26T11:28:28.905Z,6.30
2018-05-26T11:30:54.967Z,6.80
2018-05-26T11:33:20.926Z,7.10
2018-05-26T11:35:46.950Z,6.50
2018-05-26T11:38:13.035Z,7.00
2018-05-26T11:40:39.046Z,6.90
2018-05-26T11:43:05.050Z,6.80
2018-05-26T11:45:31.067Z,5.87
2018-05-26T11:47:57.066Z,6.37
2018-05-26T11:50:23.075Z,6.30
2018-05-26T11:52:49.082Z,6.80
2018-05-26T11:55:15.104Z,5.53
2018-05-26T11:57:41.107Z,5.40
2018-05-26T12:00:07.108Z,5.53
2018-05-26T12:02:33.148Z,5.80
2018-05-26T12:04:59.155Z,5.70
2018-05-26T12:07:25.205Z,5.10
2018-05-26T12:09:51.245Z,5.13
2018-05-26T12:12:17.381Z,5.83
2018-05-26T12:14:43.390Z,5.73
2018-05-26T12:17:09.835Z,6.03
2018-05-26T12:19:35.839Z,5.37
2018-05-26T12:22:01.870Z,6.00
2018-05-26T12:24:27.870Z,5.03
2018-05-26T12:26:53.914Z,5.70
2018-05-26T12:29:20.058Z,5.47
2018-05-26T12:31:46.152Z,5.53
2018-05-26T12:34:12.175Z,5.73
2018-05-26T12:36:38.201Z,5.57
2018-05-26T12:39:04.662Z,5.17
2018-05-26T12:41:30.787Z,5.53
2018-05-26T12:43:56.807Z,5.17
2018-05-26T12:46:22.843Z,5.23
2018-05-26T12:48:48.858Z,5.43
2018-05-26T12:51:14.888Z,5.50
2018-05-26T12:53:40.891Z,5.47
2018-05-26T12:56:06.919Z,5.30
2018-05-26T12:58:32.940Z,6.17
2018-05-26T13:00:58.947Z,5.00
2018-05-26T13:03:24.951Z,5.23
2018-05-26T13:05:50.978Z,5.00
2018-05-26T13:08:16.990Z,5.57
2018-05-26T13:10:43.028Z,5.40
2018-05-26T13:13:09.035Z,5.43
2018-05-26T13:15:35.055Z,5.50
2018-05-26T13:18:01.103Z,5.63
2018-05-26T13:20:27.115Z,5.57
2018-05-26T13:22:53.121Z,5.10
2018-05-26T13:25:19.138Z,4.73
2018-05-26T13:27:45.172Z,5.00
2018-05-26T13:30:11.185Z,5.27
2018-05-26T13:32:37.215Z,5.30
2018-05-26T13:35:03.380Z,5.30
2018-05-26T13:37:29.400Z,5.03
2018-05-26T13:39:55.399Z,5.40
2018-05-26T13:42:21.460Z,4.77
2018-05-26T13:44:47.470Z,5.50
2018-05-26T13:47:13.495Z,4.70
2018-05-26T13:49:39.751Z,5.43
2018-05-26T13:52:05.839Z,4.70
2018-05-26T13:54:32.242Z,5.37
2018-05-26T13:56:58.251Z,4.70
2018-05-26T13:59:24.511Z,4.57
2018-05-26T14:01:51.510Z,4.70
2018-05-26T14:04:17.542Z,5.17
2018-05-26T14:06:43.583Z,5.40
2018-05-26T14:09:09.647Z,4.70
2018-05-26T14:11:35.691Z,4.73
2018-05-26T14:14:03.233Z,5.30
2018-05-26T14:16:29.317Z,4.70
2018-05-26T14:18:55.392Z,5.07
2018-05-26T14:21:21.414Z,4.83
2018-05-26T14:23:47.451Z,5.33
2018-05-26T14:26:13.477Z,5.13
2018-05-26T14:28:39.480Z,5.10
2018-05-26T14:31:05.494Z,5.13
2018-05-26T14:33:31.519Z,4.80
2018-05-26T14:35:57.551Z,5.23
2018-05-26T14:38:23.599Z,5.17
2018-05-26T14:40:49.606Z,5.30
2018-05-26T14:43:15.986Z,4.90
2018-05-26T14:45:42.027Z,5.00
2018-05-26T14:48:08.044Z,5.20
2018-05-26T14:50:34.051Z,5.20
2018-05-26T14:53:00.075Z,4.40
2018-05-26T14:55:26.199Z,4.90
2018-05-26T14:57:52.223Z,5.00
2018-05-26T15:00:18.301Z,5.17
2018-05-26T15:02:44.359Z,5.70
2018-05-26T15:05:10.479Z,5.23
2018-05-26T15:07:36.904Z,5.90
2018-05-26T15:10:03.057Z,5.00
2018-05-26T15:12:29.164Z,5.70
2018-05-26T15:14:55.313Z,5.30
2018-05-26T15:17:21.382Z,6.07
2018-05-26T15:19:47.420Z,6.30
2018-05-26T15:22:13.560Z,6.60
2018-05-26T15:24:39.569Z,5.60
2018-05-26T15:27:05.604Z,6.73
2018-05-26T15:29:31.923Z,6.00
2018-05-26T15:31:57.955Z,5.63
2018-05-26T15:34:23.965Z,6.43
2018-05-26T15:36:50.007Z,5.60
2018-05-26T15:39:16.026Z,5.87
2018-05-26T15:41:42.060Z,5.10
2018-05-26T15:44:08.074Z,5.90
2018-05-26T15:46:34.132Z,5.50
2018-05-26T15:49:00.139Z,5.80
2018-05-26T15:51:26.150Z,5.13
2018-05-26T15:53:52.159Z,5.50
2018-05-26T15:56:18.221Z,5.77
2018-05-26T15:58:44.265Z,5.60
2018-05-26T16:01:10.270Z,5.10
2018-05-26T16:03:36.293Z,5.40
2018-05-26T16:06:02.312Z,5.50
2018-05-26T16:08:28.327Z,5.70
2018-05-26T16:10:54.341Z,5.67
2018-05-26T16:13:20.362Z,5.60
2018-05-26T16:15:46.363Z,5.77
2018-05-26T16:18:12.407Z,4.97
2018-05-26T16:20:38.423Z,4.90
2018-05-26T16:23:04.430Z,5.53
2018-05-26T16:25:30.440Z,5.40
2018-05-26T16:27:56.453Z,5.17
2018-05-26T16:30:22.463Z,5.77
2018-05-26T16:32:48.475Z,5.63
2018-05-26T16:35:14.496Z,5.93
2018-05-26T16:37:40.545Z,5.30
2018-05-26T16:40:06.555Z,6.40
2018-05-26T16:42:32.586Z,5.23
2018-05-26T16:44:58.591Z,6.40
2018-05-26T16:47:24.615Z,5.93
2018-05-26T16:49:50.622Z,5.93
2018-05-26T16:52:16.741Z,6.93
2018-05-26T16:54:42.742Z,7.90
2018-05-26T16:57:08.767Z,7.20
2018-05-26T16:59:34.810Z,7.03
2018-05-26T17:02:00.862Z,7.57
2018-05-26T17:04:26.862Z,7.60
2018-05-26T17:06:52.896Z,7.60
2018-05-26T17:09:18.915Z,7.37
2018-05-26T17:11:44.936Z,7.40
2018-05-26T17:14:10.938Z,7.23
2018-05-26T17:16:37.087Z,7.57
2018-05-26T17:19:03.102Z,7.53
2018-05-26T17:21:29.145Z,8.30
2018-05-26T17:23:55.166Z,7.10
2018-05-26T17:26:21.251Z,7.77
2018-05-26T17:28:47.263Z,7.20
2018-05-26T17:31:13.270Z,8.20
2018-05-26T17:33:39.300Z,7.60
2018-05-26T17:36:05.312Z,7.60
2018-05-26T17:38:31.372Z,7.13
2018-05-26T17:40:57.378Z,7.30
2018-05-26T17:43:23.459Z,7.40
2018-05-26T17:45:49.617Z,8.20
2018-05-26T17:48:15.652Z,7.50
2018-05-26T17:50:41.658Z,7.10
2018-05-26T17:53:07.670Z,6.70
2018-05-26T17:55:33.674Z,8.13
2018-05-26T17:57:59.750Z,7.10
2018-05-26T18:00:25.770Z,7.23
2018-05-26T18:02:51.782Z,7.40
2018-05-26T18:05:17.797Z,7.90
2018-05-26T18:07:43.807Z,7.40
2018-05-26T18:10:09.810Z,7.70
2018-05-26T18:12:35.895Z,7.70
2018-05-26T18:15:01.915Z,8.30
2018-05-26T18:17:27.968Z,8.67
2018-05-26T18:19:53.975Z,7.60
2018-05-26T18:22:19.995Z,9.77
2018-05-26T18:24:46.000Z,8.40
2018-05-26T18:27:12.026Z,8.70
2018-05-26T18:29:38.078Z,9.23
2018-05-26T18:32:04.117Z,8.17
2018-05-26T18:34:30.143Z,9.10
2018-05-26T18:36:56.180Z,7.90
2018-05-26T18:39:22.219Z,8.60
2018-05-26T18:41:48.259Z,8.70
2018-05-26T18:44:14.285Z,8.60
2018-05-26T18:46:40.350Z,8.60
2018-05-26T18:49:06.375Z,8.03
2018-05-26T18:51:32.389Z,8.30
2018-05-26T18:53:58.395Z,8.23
2018-05-26T18:56:24.399Z,8.50
2018-05-26T18:58:50.441Z,8.93
2018-05-26T19:01:16.447Z,7.97
2018-05-26T19:03:42.470Z,7.97
2018-05-26T19:06:08.480Z,9.17
2018-05-26T19:08:34.579Z,7.17
2018-05-26T19:11:00.667Z,8.10
2018-05-26T19:13:26.787Z,7.43
2018-05-26T19:15:52.827Z,8.10
2018-05-26T19:18:18.832Z,8.27
2018-05-26T19:20:44.882Z,8.17
2018-05-26T19:23:10.900Z,7.33
2018-05-26T19:25:37.105Z,7.73
2018-05-26T19:28:03.564Z,8.30
2018-05-26T19:30:29.610Z,7.73
2018-05-26T19:32:55.690Z,7.17
2018-05-26T19:35:21.685Z,7.83
2018-05-26T19:37:47.863Z,8.10
2018-05-26T19:40:13.881Z,8.70
2018-05-26T19:42:39.966Z,8.50
2018-05-26T19:45:05.974Z,9.07
2018-05-26T19:47:31.988Z,9.70
2018-05-26T19:49:58.062Z,8.83
2018-05-26T19:52:24.103Z,7.80
2018-05-26T19:54:50.110Z,8.37
2018-05-26T19:57:16.131Z,8.07
2018-05-26T19:59:42.139Z,9.50
2018-05-26T20:02:08.223Z,8.40
2018-05-26T20:04:34.255Z,8.70
2018-05-26T20:07:00.277Z,9.10
2018-05-26T20:09:26.372Z,9.77
2018-05-26T20:11:52.422Z,8.50
2018-05-26T20:14:18.637Z,9.50
2018-05-26T20:16:44.697Z,8.60
2018-05-26T20:19:11.203Z,8.33
2018-05-26T20:21:37.246Z,8.67
2018-05-26T20:24:03.271Z,7.90
2018-05-26T20:26:29.270Z,8.50
2018-05-26T20:28:55.294Z,8.33
2018-05-26T20:31:21.527Z,9.20
2018-05-26T20:33:47.835Z,7.90
2018-05-26T20:36:14.268Z,8.00
2018-05-26T20:38:40.435Z,9.03
2018-05-26T20:41:06.929Z,9.47
2018-05-26T20:43:33.578Z,8.70
2018-05-26T20:45:59.692Z,8.00
2018-05-26T20:48:27.587Z,9.23
2018-05-26T20:50:53.890Z,8.30
2018-05-26T20:53:20.327Z,8.40
2018-05-26T20:55:46.653Z,8.40
2018-05-26T20:58:13.393Z,8.90
2018-05-26T21:00:39.827Z,7.80
2018-05-26T21:03:06.477Z,7.00
2018-05-26T21:05:32.901Z,8.20
2018-05-26T21:07:59.331Z,7.20
2018-05-26T21:10:25.661Z,7.73
2018-05-26T21:12:52.197Z,7.20
2018-05-26T21:15:18.533Z,7.60
2018-05-26T21:17:44.960Z,7.93
2018-05-26T21:20:11.000Z,7.67
2018-05-26T21:22:37.030Z,8.03
2018-05-26T21:25:03.047Z,6.27
2018-05-26T21:27:29.058Z,6.80
2018-05-26T21:29:55.090Z,7.60
2018-05-26T21:32:21.092Z,7.43
2018-05-26T21:34:47.119Z,7.10
2018-05-26T21:37:13.134Z,7.20
2018-05-26T21:39:39.176Z,7.40
2018-05-26T21:42:05.193Z,6.50
2018-05-26T21:44:31.205Z,6.13
2018-05-26T21:46:57.210Z,6.67
2018-05-26T21:49:23.234Z,7.50
2018-05-26T21:51:49.238Z,6.90
2018-05-26T21:54:15.251Z,6.17
2018-05-26T21:56:41.258Z,7.27
2018-05-26T21:59:07.286Z,6.77
2018-05-26T22:01:33.300Z,7.27
2018-05-26T22:03:59.385Z,6.60
2018-05-26T22:06:25.406Z,6.83
2018-05-26T22:08:51.439Z,7.07
2018-05-26T22:11:17.886Z,6.00
2018-05-26T22:13:43.968Z,6.23
2018-05-26T22:16:09.970Z,6.57
2018-05-26T22:18:35.983Z,7.43
2018-05-26T22:21:02.076Z,6.53
2018-05-26T22:23:28.107Z,5.53
2018-05-26T22:25:54.108Z,7.03
2018-05-26T22:28:20.135Z,7.27
2018-05-26T22:30:46.149Z,7.00
2018-05-26T22:33:12.150Z,6.33
2018-05-26T22:35:38.193Z,6.03
2018-05-26T22:38:04.364Z,6.43
2018-05-26T22:40:30.368Z,5.63
2018-05-26T22:42:56.396Z,6.20
2018-05-26T22:45:22.404Z,6.23
2018-05-26T22:47:48.419Z,6.47
2018-05-26T22:50:14.442Z,6.33
2018-05-26T22:52:40.474Z,7.40
2018-05-26T22:55:06.489Z,5.80
2018-05-26T22:57:32.510Z,5.40
2018-05-26T22:59:58.581Z,6.50
2018-05-26T23:02:24.561Z,5.80
2018-05-26T23:04:50.601Z,6.43
2018-05-26T23:07:16.606Z,6.27
2018-05-26T23:09:42.626Z,6.10
2018-05-26T23:12:08.628Z,6.27
2018-05-26T23:14:34.675Z,6.03
2018-05-26T23:17:00.699Z,5.70
2018-05-26T23:19:26.740Z,6.60
2018-05-26T23:21:52.743Z,6.13
2018-05-26T23:24:18.767Z,5.83
2018-05-26T23:26:44.770Z,5.97
2018-05-26T23:29:10.778Z,5.83
2018-05-26T23:31:36.797Z,5.80
2018-05-26T23:34:02.829Z,6.70
2018-05-26T23:36:28.827Z,6.00
2018-05-26T23:38:54.846Z,5.60
2018-05-26T23:41:20.847Z,5.93
2018-05-26T23:43:46.887Z,6.17
2018-05-26T23:46:12.984Z,6.50
2018-05-26T23:48:39.057Z,5.47
2018-05-26T23:51:05.051Z,5.43
2018-05-26T23:53:31.067Z,6.30
2018-05-26T23:55:57.073Z,6.37
2018-05-26T23:58:23.091Z,6.03
